createdAt,value
2023-04-21T00:01:45.660Z,21.33
2023-04-21T00:04:13.971Z,20.30
2023-04-21T00:06:41.667Z,21.17
2023-04-21T00:09:09.739Z,18.63
2023-04-21T00:11:37.296Z,20.63
2023-04-21T00:14:04.698Z,16.02
2023-04-21T00:16:32.070Z,17.05
2023-04-21T00:18:59.620Z,17.90
2023-04-21T00:21:26.930Z,18.17
2023-04-21T00:23:54.338Z,18.02
2023-04-21T00:26:21.635Z,17.65
2023-04-21T00:28:50.849Z,18.08
2023-04-21T00:31:18.231Z,16.35
2023-04-21T00:33:45.774Z,16.50
2023-04-21T00:36:13.058Z,16.50
2023-04-21T00:38:40.540Z,15.25
2023-04-21T00:41:08.903Z,14.50
2023-04-21T00:43:58.474Z,14.85
2023-04-21T00:46:26.048Z,15.32
2023-04-21T00:48:54.106Z,14.25
2023-04-21T00:51:21.686Z,13.57
2023-04-21T00:53:50.084Z,13.68
2023-04-21T00:56:18.880Z,13.15
2023-04-21T00:58:46.687Z,13.60
2023-04-21T01:01:14.649Z,15.15
2023-04-21T01:03:47.653Z,14.03
2023-04-21T01:06:15.108Z,14.98
2023-04-21T01:08:42.610Z,14.13
2023-04-21T01:11:11.140Z,13.47
2023-04-21T01:13:40.902Z,12.83
2023-04-21T01:16:08.568Z,11.10
2023-04-21T01:18:37.007Z,13.27
2023-04-21T01:21:06.207Z,14.70
2023-04-21T01:23:34.530Z,13.97
2023-04-21T01:26:02.063Z,12.33
2023-04-21T01:28:29.456Z,14.17
2023-04-21T01:30:56.734Z,13.50
2023-04-21T01:33:24.384Z,16.03
2023-04-21T01:35:51.995Z,16.93
2023-04-21T01:38:21.816Z,14.40
2023-04-21T01:40:52.609Z,15.10
2023-04-21T01:45:49.373Z,15.93
2023-04-21T01:48:16.972Z,17.37
2023-04-21T01:50:44.543Z,18.40
2023-04-21T01:53:11.900Z,17.23
2023-04-21T01:55:39.495Z,16.90
2023-04-21T01:58:10.068Z,17.77
2023-04-21T02:00:37.500Z,18.20
2023-04-21T02:03:05.825Z,15.77
2023-04-21T02:05:33.247Z,16.87
2023-04-21T02:08:00.621Z,17.63
2023-04-21T02:10:28.036Z,16.70
2023-04-21T02:12:55.412Z,16.43
2023-04-21T02:15:22.872Z,17.00
2023-04-21T02:17:50.175Z,15.63
2023-04-21T02:20:17.506Z,15.40
2023-04-21T02:22:44.790Z,16.83
2023-04-21T02:25:12.158Z,14.80
2023-04-21T02:27:39.791Z,16.40
2023-04-21T02:30:08.188Z,15.87
2023-04-21T02:32:35.650Z,16.70
2023-04-21T02:35:05.607Z,15.97
2023-04-21T02:37:33.048Z,14.30
2023-04-21T02:40:00.445Z,15.23
2023-04-21T02:42:27.740Z,15.97
2023-04-21T02:44:55.061Z,17.00
2023-04-21T02:47:22.376Z,17.53
2023-04-21T02:49:49.757Z,17.00
2023-04-21T02:52:17.063Z,16.63
2023-04-21T02:54:44.430Z,17.37
2023-04-21T02:57:11.753Z,17.57
2023-04-21T02:59:40.307Z,15.63
2023-04-21T03:02:07.723Z,14.30
2023-04-21T03:04:39.427Z,15.57
2023-04-21T03:07:12.449Z,15.83
2023-04-21T03:09:40.775Z,17.27
2023-04-21T03:12:08.182Z,16.73
2023-04-21T03:14:36.704Z,17.13
2023-04-21T03:17:04.011Z,16.57
2023-04-21T03:19:33.159Z,14.97
2023-04-21T03:22:00.465Z,16.33
2023-04-21T03:24:28.604Z,15.47
2023-04-21T03:26:57.010Z,15.90
2023-04-21T03:29:24.526Z,15.10
2023-04-21T03:31:51.880Z,14.90
2023-04-21T03:34:19.556Z,16.03
2023-04-21T03:36:46.944Z,16.80
2023-04-21T03:41:46.538Z,17.33
2023-04-21T03:44:13.893Z,15.00
2023-04-21T03:46:41.154Z,14.43
2023-04-21T03:49:08.483Z,14.47
2023-04-21T03:51:35.789Z,15.27
2023-04-21T03:54:03.273Z,16.80
2023-04-21T03:56:30.698Z,16.10
2023-04-21T03:58:58.146Z,16.30
2023-04-21T04:01:25.548Z,15.43
2023-04-21T04:03:53.056Z,14.73
2023-04-21T04:06:20.622Z,15.77
2023-04-21T04:08:48.004Z,16.73
2023-04-21T04:11:15.390Z,15.67
2023-04-21T04:13:42.734Z,16.13
2023-04-21T04:16:10.230Z,15.00
2023-04-21T04:18:37.611Z,15.23
2023-04-21T04:21:08.506Z,14.27
2023-04-21T04:23:36.605Z,16.87
2023-04-21T04:26:07.404Z,14.73
2023-04-21T04:28:34.976Z,15.37
2023-04-21T04:31:03.218Z,16.43
2023-04-21T04:33:30.653Z,16.70
2023-04-21T04:35:58.379Z,15.80
2023-04-21T04:38:25.743Z,16.53
2023-04-21T04:40:57.703Z,16.40
2023-04-21T04:43:25.607Z,16.93
2023-04-21T04:45:53.388Z,17.27
2023-04-21T04:48:20.728Z,16.27
2023-04-21T04:50:48.136Z,16.13
2023-04-21T04:53:15.889Z,15.77
2023-04-21T04:55:43.278Z,14.67
2023-04-21T04:58:10.788Z,14.60
2023-04-21T05:00:38.192Z,14.33
2023-04-21T05:03:06.044Z,13.97
2023-04-21T05:05:33.525Z,15.47
2023-04-21T05:08:00.905Z,15.07
2023-04-21T05:10:28.334Z,14.60
2023-04-21T05:12:55.723Z,15.53
2023-04-21T05:15:23.147Z,17.00
2023-04-21T05:17:50.577Z,16.33
2023-04-21T05:20:18.075Z,16.60
2023-04-21T05:22:45.387Z,17.52
2023-04-21T05:25:16.175Z,19.45
2023-04-21T05:27:43.681Z,21.85
2023-04-21T05:30:11.615Z,20.05
2023-04-21T05:32:39.065Z,18.85
2023-04-21T05:35:07.071Z,18.92
2023-04-21T05:37:34.409Z,21.58
2023-04-21T05:40:01.762Z,22.33
2023-04-21T05:42:29.108Z,24.55
2023-04-21T05:44:56.659Z,24.30
2023-04-21T05:47:23.964Z,23.00
2023-04-21T05:49:54.365Z,22.63
2023-04-21T05:52:21.933Z,22.10
2023-04-21T05:54:49.408Z,22.08
2023-04-21T05:57:17.731Z,19.85
2023-04-21T05:59:45.297Z,20.83
2023-04-21T06:02:13.452Z,19.73
2023-04-21T06:04:40.986Z,19.20
2023-04-21T06:07:10.419Z,18.67
2023-04-21T06:09:38.352Z,20.85
2023-04-21T06:12:06.122Z,22.15
2023-04-21T06:14:33.455Z,24.02
2023-04-21T06:17:00.848Z,22.58
2023-04-21T06:19:28.179Z,24.85
2023-04-21T06:21:57.168Z,24.40
2023-04-21T06:24:25.696Z,20.73
2023-04-21T06:26:53.493Z,17.80
2023-04-21T06:29:21.072Z,15.43
2023-04-21T06:31:48.645Z,15.45
2023-04-21T06:34:16.315Z,14.20
2023-04-21T06:36:44.811Z,13.85
2023-04-21T06:39:12.154Z,13.15
2023-04-21T06:41:39.777Z,14.25
2023-04-21T06:44:07.174Z,13.93
2023-04-21T06:46:34.626Z,13.32
2023-04-21T06:49:02.031Z,12.15
2023-04-21T06:51:29.443Z,11.77
2023-04-21T06:53:56.757Z,10.38
2023-04-21T06:56:24.209Z,9.63
2023-04-21T06:58:52.252Z,9.82
2023-04-21T07:01:19.658Z,10.57
2023-04-21T07:03:47.142Z,10.95
2023-04-21T07:06:14.623Z,9.05
2023-04-21T07:08:41.949Z,10.18
2023-04-21T07:11:09.374Z,9.50
2023-04-21T07:13:36.711Z,8.85
2023-04-21T07:16:04.251Z,9.45
2023-04-21T07:18:32.619Z,9.95
2023-04-21T07:21:00.349Z,10.70
2023-04-21T07:23:27.709Z,9.57
2023-04-21T07:25:58.924Z,9.15
2023-04-21T07:28:26.696Z,8.75
2023-04-21T07:30:54.151Z,8.95
2023-04-21T07:33:21.462Z,8.05
2023-04-21T07:35:48.842Z,8.32
2023-04-21T07:38:16.187Z,8.10
2023-04-21T07:40:46.076Z,8.18
2023-04-21T07:43:13.911Z,7.50
2023-04-21T07:45:41.366Z,8.05
2023-04-21T07:48:08.833Z,7.20
2023-04-21T07:50:36.614Z,7.45
2023-04-21T07:53:04.077Z,7.15
2023-04-21T07:55:31.580Z,6.72
2023-04-21T07:58:01.902Z,7.00
2023-04-21T08:00:29.629Z,7.05
2023-04-21T08:02:57.159Z,7.45
2023-04-21T08:05:27.310Z,6.90
2023-04-21T08:07:56.384Z,7.03
2023-04-21T08:10:24.129Z,6.72
2023-04-21T08:12:51.771Z,7.57
2023-04-21T08:15:19.374Z,6.95
2023-04-21T08:17:46.966Z,6.88
2023-04-21T08:20:14.604Z,6.05
2023-04-21T08:22:42.404Z,6.85
2023-04-21T08:25:10.032Z,8.57
2023-04-21T08:27:40.822Z,8.45
2023-04-21T08:30:09.255Z,6.32
2023-04-21T08:32:36.738Z,4.85
2023-04-21T08:35:04.358Z,5.07
2023-04-21T08:37:31.836Z,4.18
2023-04-21T08:39:59.420Z,3.78
2023-04-21T08:42:30.338Z,3.72
2023-04-21T08:44:58.045Z,2.67
2023-04-21T08:47:26.129Z,2.85
2023-04-21T08:49:54.570Z,3.35
2023-04-21T08:52:22.058Z,2.83
2023-04-21T08:54:53.419Z,2.60
2023-04-21T08:57:21.153Z,2.40
2023-04-21T08:59:48.639Z,2.97
2023-04-21T09:02:19.085Z,2.05
2023-04-21T09:04:49.103Z,3.05
2023-04-21T09:07:34.612Z,2.20
2023-04-21T09:10:02.442Z,2.38
2023-04-21T09:12:30.428Z,2.00
2023-04-21T09:14:58.640Z,2.55
2023-04-21T09:17:34.225Z,2.40
2023-04-21T09:20:19.338Z,1.80
2023-04-21T09:22:51.609Z,2.08
2023-04-21T09:25:22.746Z,2.55
2023-04-21T09:27:50.164Z,2.42
2023-04-21T09:30:20.578Z,2.33
2023-04-21T09:32:47.997Z,2.75
2023-04-21T09:35:15.634Z,2.03
2023-04-21T09:37:45.757Z,2.80
2023-04-21T09:40:15.104Z,2.42
2023-04-21T09:42:44.489Z,2.25
2023-04-21T09:47:51.258Z,2.67
2023-04-21T09:50:39.295Z,2.55
2023-04-21T09:53:15.522Z,2.30
2023-04-21T09:55:46.757Z,1.95
2023-04-21T09:58:19.490Z,2.20
2023-04-21T10:00:47.683Z,2.03
2023-04-21T10:03:18.241Z,1.90
2023-04-21T10:05:48.107Z,2.33
2023-04-21T10:08:17.164Z,2.20
2023-04-21T10:10:45.867Z,1.95
2023-04-21T10:13:16.688Z,1.92
2023-04-21T10:15:44.265Z,2.30
2023-04-21T10:18:20.113Z,2.65
2023-04-21T10:21:04.086Z,2.30
2023-04-21T10:23:53.024Z,2.13
2023-04-21T10:26:32.458Z,2.42
2023-04-21T10:29:07.128Z,2.42
2023-04-21T10:31:44.666Z,1.90
2023-04-21T10:34:16.878Z,2.22
2023-04-21T10:37:09.063Z,2.50
2023-04-21T10:42:24.669Z,1.77
2023-04-21T10:45:05.308Z,1.83
2023-04-21T10:47:41.518Z,1.75
2023-04-21T10:50:14.470Z,1.40
2023-04-21T10:52:53.496Z,1.98
2023-04-21T10:55:22.003Z,1.80
2023-04-21T10:57:50.704Z,1.83
2023-04-21T11:00:20.730Z,1.98
2023-04-21T11:02:57.252Z,1.92
2023-04-21T11:05:29.464Z,1.40
2023-04-21T11:08:14.634Z,1.45
2023-04-21T11:10:53.081Z,1.80
2023-04-21T11:13:33.457Z,1.30
2023-04-21T11:16:03.611Z,2.25
2023-04-21T11:18:44.898Z,1.92
2023-04-21T11:21:17.950Z,3.97
2023-04-21T11:23:55.973Z,2.30
2023-04-21T11:26:34.171Z,1.45
2023-04-21T11:29:03.317Z,1.67
2023-04-21T11:31:31.233Z,1.42
2023-04-21T11:34:02.774Z,1.83
2023-04-21T11:36:32.187Z,1.50
2023-04-21T11:38:59.743Z,1.75
2023-04-21T11:41:27.056Z,2.00
2023-04-21T11:43:54.415Z,1.95
2023-04-21T11:46:26.839Z,1.80
2023-04-21T11:49:06.325Z,2.33
2023-04-21T11:51:39.285Z,2.20
2023-04-21T11:54:10.004Z,1.75
2023-04-21T11:56:39.533Z,2.17
2023-04-21T11:59:14.868Z,1.70
2023-04-21T12:01:53.903Z,1.70
2023-04-21T12:04:25.999Z,1.88
2023-04-21T12:07:01.865Z,1.73
2023-04-21T12:09:30.414Z,1.40
2023-04-21T12:12:02.564Z,1.52
2023-04-21T12:14:33.366Z,1.55
2023-04-21T12:17:00.755Z,2.40
2023-04-21T12:19:42.499Z,2.30
2023-04-21T12:22:11.934Z,1.55
2023-04-21T12:24:39.960Z,1.70
2023-04-21T12:27:08.436Z,1.83
2023-04-21T12:29:37.483Z,1.33
2023-04-21T12:32:08.696Z,2.05
2023-04-21T12:34:36.374Z,1.60
2023-04-21T12:37:04.092Z,1.52
2023-04-21T12:39:32.268Z,1.70
2023-04-21T12:42:00.035Z,2.38
2023-04-21T12:44:28.266Z,1.98
2023-04-21T12:46:55.903Z,1.38
2023-04-21T12:49:23.635Z,1.80
2023-04-21T12:51:51.071Z,1.33
2023-04-21T12:54:18.866Z,2.03
2023-04-21T12:56:46.933Z,2.00
2023-04-21T12:59:14.475Z,1.50
2023-04-21T13:01:44.877Z,1.50
2023-04-21T13:04:12.479Z,1.60
2023-04-21T13:06:40.618Z,1.70
2023-04-21T13:09:08.414Z,1.55
2023-04-21T13:11:35.831Z,1.85
2023-04-21T13:14:04.226Z,1.33
2023-04-21T13:16:34.341Z,1.30
2023-04-21T13:19:01.910Z,1.50
2023-04-21T13:21:29.282Z,1.65
2023-04-21T13:23:58.273Z,1.58
2023-04-21T13:26:25.957Z,2.08
2023-04-21T13:28:54.897Z,1.98
2023-04-21T13:31:22.282Z,1.80
2023-04-21T13:33:50.308Z,2.15
2023-04-21T13:36:18.983Z,2.47
2023-04-21T13:38:48.123Z,2.55
2023-04-21T13:41:15.499Z,2.95
2023-04-21T13:43:43.110Z,2.80
2023-04-21T13:46:10.501Z,2.45
2023-04-21T13:48:37.897Z,2.50
2023-04-21T13:51:05.542Z,2.58
2023-04-21T13:53:33.178Z,2.10
2023-04-21T13:56:00.617Z,2.08
2023-04-21T13:58:30.655Z,2.33
2023-04-21T14:00:57.971Z,2.30
2023-04-21T14:03:25.540Z,2.30
2023-04-21T14:05:53.039Z,2.45
2023-04-21T14:08:20.776Z,2.60
2023-04-21T14:10:48.125Z,2.65
2023-04-21T14:13:27.395Z,2.28
2023-04-21T14:16:02.715Z,2.22
2023-04-21T14:18:30.171Z,2.05
2023-04-21T14:20:57.470Z,2.58
2023-04-21T14:23:25.410Z,1.63
2023-04-21T14:25:54.849Z,2.22
2023-04-21T14:28:22.581Z,2.13
2023-04-21T14:30:50.010Z,2.30
2023-04-21T14:33:17.378Z,1.83
2023-04-21T14:35:44.759Z,2.10
2023-04-21T14:38:12.096Z,2.20
2023-04-21T14:40:39.382Z,2.67
2023-04-21T14:43:06.826Z,3.60
2023-04-21T14:45:34.185Z,2.75
2023-04-21T14:48:01.625Z,2.47
2023-04-21T14:50:29.149Z,2.88
2023-04-21T14:52:56.498Z,2.70
2023-04-21T14:55:23.812Z,3.10
2023-04-21T14:57:52.351Z,3.42
2023-04-21T15:00:20.679Z,3.22
2023-04-21T15:02:48.190Z,3.30
2023-04-21T15:05:15.865Z,2.45
2023-04-21T15:07:43.367Z,2.88
2023-04-21T15:10:11.282Z,3.17
2023-04-21T15:12:41.878Z,3.00
2023-04-21T15:15:09.710Z,3.50
2023-04-21T15:17:37.241Z,3.40
2023-04-21T15:20:05.440Z,3.45
2023-04-21T15:22:33.049Z,3.67
2023-04-21T15:25:00.517Z,3.35
2023-04-21T15:27:27.836Z,3.63
2023-04-21T15:29:55.191Z,3.47
2023-04-21T15:32:22.525Z,4.13
2023-04-21T15:34:49.886Z,3.35
2023-04-21T15:37:17.740Z,3.42
2023-04-21T15:39:45.111Z,3.45
2023-04-21T15:42:12.502Z,3.50
2023-04-21T15:44:39.951Z,3.42
2023-04-21T15:47:07.321Z,3.97
2023-04-21T15:49:34.895Z,3.78
2023-04-21T15:52:04.410Z,4.43
2023-04-21T15:54:34.132Z,3.70
2023-04-21T15:57:05.457Z,4.18
2023-04-21T15:59:34.988Z,4.88
2023-04-21T16:02:02.473Z,3.95
2023-04-21T16:04:30.231Z,4.55
2023-04-21T16:06:57.711Z,4.50
2023-04-21T16:09:25.066Z,4.10
2023-04-21T16:11:52.464Z,4.03
2023-04-21T16:14:19.957Z,3.70
2023-04-21T16:16:47.432Z,4.30
2023-04-21T16:19:14.921Z,4.57
2023-04-21T16:21:42.870Z,4.47
2023-04-21T16:24:10.891Z,4.10
2023-04-21T16:26:38.203Z,4.65
2023-04-21T16:29:05.567Z,4.47
2023-04-21T16:31:32.962Z,5.28
2023-04-21T16:34:00.540Z,5.30
2023-04-21T16:36:28.891Z,4.28
2023-04-21T16:38:56.433Z,4.75
2023-04-21T16:41:23.831Z,4.60
2023-04-21T16:43:51.209Z,4.35
2023-04-21T16:46:18.884Z,3.88
2023-04-21T16:48:46.631Z,4.70
2023-04-21T16:51:14.123Z,4.40
2023-04-21T16:53:42.120Z,4.53
2023-04-21T16:56:09.951Z,4.80
2023-04-21T16:58:37.780Z,3.92
2023-04-21T17:01:07.537Z,4.32
2023-04-21T17:03:35.398Z,4.05
2023-04-21T17:06:04.978Z,4.18
2023-04-21T17:08:32.312Z,4.55
2023-04-21T17:11:00.281Z,4.28
2023-04-21T17:13:27.639Z,4.25
2023-04-21T17:15:55.018Z,4.93
2023-04-21T17:18:22.419Z,4.50
2023-04-21T17:20:49.723Z,4.53
2023-04-21T17:23:17.094Z,4.63
2023-04-21T17:25:45.958Z,4.40
2023-04-21T17:28:15.285Z,5.15
2023-04-21T17:30:42.749Z,4.75
2023-04-21T17:35:55.658Z,4.50
2023-04-21T17:38:29.559Z,4.90
2023-04-21T17:40:56.901Z,4.28
2023-04-21T17:43:24.408Z,5.20
2023-04-21T17:45:52.468Z,4.18
2023-04-21T17:48:21.023Z,4.53
2023-04-21T17:50:48.351Z,4.88
2023-04-21T17:53:15.681Z,4.55
2023-04-21T17:55:43.436Z,4.22
2023-04-21T17:58:12.457Z,5.18
2023-04-21T18:00:40.911Z,4.60
2023-04-21T18:03:08.489Z,4.57
2023-04-21T18:05:36.231Z,4.75
2023-04-21T18:08:03.539Z,4.72
2023-04-21T18:10:31.178Z,4.95
2023-04-21T18:12:58.629Z,4.25
2023-04-21T18:15:26.016Z,4.30
2023-04-21T18:17:53.467Z,4.75
2023-04-21T18:20:20.987Z,4.80
2023-04-21T18:22:49.358Z,5.35
2023-04-21T18:25:27.292Z,4.53
2023-04-21T18:28:05.802Z,4.85
2023-04-21T18:30:33.748Z,4.70
2023-04-21T18:33:01.125Z,4.72
2023-04-21T18:35:28.484Z,5.20
2023-04-21T18:37:56.442Z,5.22
2023-04-21T18:40:24.007Z,5.35
2023-04-21T18:42:51.762Z,6.03
2023-04-21T18:45:19.191Z,5.95
2023-04-21T18:47:46.882Z,5.32
2023-04-21T18:50:14.297Z,5.55
2023-04-21T18:52:41.583Z,5.57
2023-04-21T18:55:09.562Z,5.00
2023-04-21T18:57:36.850Z,4.70
2023-04-21T19:00:05.384Z,5.05
2023-04-21T19:02:33.361Z,4.68
2023-04-21T19:05:00.759Z,4.93
2023-04-21T19:07:28.075Z,5.28
2023-04-21T19:09:55.503Z,5.57
2023-04-21T19:12:22.970Z,5.43
2023-04-21T19:14:51.156Z,5.20
2023-04-21T19:17:18.600Z,6.07
2023-04-21T19:19:46.091Z,5.30
2023-04-21T19:22:13.443Z,4.45
2023-04-21T19:24:41.238Z,5.00
2023-04-21T19:27:08.607Z,6.18
2023-04-21T19:29:36.963Z,5.20
2023-04-21T19:32:04.559Z,5.22
2023-04-21T19:34:32.156Z,5.50
2023-04-21T19:36:59.678Z,5.25
2023-04-21T19:39:27.745Z,5.63
2023-04-21T19:41:57.361Z,6.07
2023-04-21T19:44:24.724Z,5.25
2023-04-21T19:46:52.323Z,5.63
2023-04-21T19:49:19.666Z,6.85
2023-04-21T19:51:47.098Z,7.32
2023-04-21T19:54:14.402Z,6.03
2023-04-21T19:56:41.817Z,6.00
2023-04-21T19:59:09.091Z,6.22
2023-04-21T20:01:36.717Z,5.25
2023-04-21T20:04:04.669Z,6.53
2023-04-21T20:06:32.851Z,6.75
2023-04-21T20:09:05.679Z,7.45
2023-04-21T20:11:34.045Z,7.03
2023-04-21T20:14:01.376Z,7.80
2023-04-21T20:16:29.174Z,6.90
2023-04-21T20:18:56.642Z,6.50
2023-04-21T20:21:23.998Z,7.25
2023-04-21T20:23:51.448Z,7.15
2023-04-21T20:26:18.897Z,7.90
2023-04-21T20:28:46.919Z,7.88
2023-04-21T20:31:14.796Z,7.70
2023-04-21T20:33:42.199Z,8.50
2023-04-21T20:36:09.572Z,8.20
2023-04-21T20:38:38.359Z,9.20
2023-04-21T20:41:05.744Z,10.90
2023-04-21T20:43:33.560Z,10.05
2023-04-21T20:46:01.736Z,10.02
2023-04-21T20:48:29.110Z,8.65
2023-04-21T20:50:56.759Z,9.00
2023-04-21T20:53:24.089Z,8.07
2023-04-21T20:55:51.523Z,7.65
2023-04-21T20:58:18.868Z,8.07
2023-04-21T21:00:46.280Z,8.18
2023-04-21T21:03:14.279Z,8.82
2023-04-21T21:05:42.088Z,8.70
2023-04-21T21:08:10.067Z,8.40
2023-04-21T21:10:37.428Z,9.23
2023-04-21T21:13:04.820Z,10.00
2023-04-21T21:15:32.334Z,9.88
2023-04-21T21:18:00.028Z,9.48
2023-04-21T21:20:27.418Z,9.43
2023-04-21T21:22:54.821Z,9.60
2023-04-21T21:25:22.143Z,9.30
2023-04-21T21:27:49.735Z,8.75
2023-04-21T21:30:17.133Z,8.45
2023-04-21T21:32:44.530Z,8.98
2023-04-21T21:35:12.153Z,9.10
2023-04-21T21:37:39.616Z,9.65
2023-04-21T21:40:07.869Z,10.20
2023-04-21T21:42:35.449Z,9.70
2023-04-21T21:45:02.832Z,8.85
2023-04-21T21:47:30.329Z,8.05
2023-04-21T21:49:58.903Z,8.43
2023-04-21T21:52:28.623Z,8.45
2023-04-21T21:54:56.939Z,8.15
2023-04-21T21:57:24.683Z,9.35
2023-04-21T21:59:52.465Z,8.35
2023-04-21T22:02:20.163Z,8.40
2023-04-21T22:04:47.719Z,9.23
2023-04-21T22:07:15.140Z,7.97
2023-04-21T22:09:42.425Z,8.10
2023-04-21T22:12:09.827Z,7.93
2023-04-21T22:14:37.369Z,8.30
2023-04-21T22:17:06.766Z,8.73
2023-04-21T22:19:34.227Z,8.68
2023-04-21T22:22:01.596Z,8.60
2023-04-21T22:24:28.918Z,7.88
2023-04-21T22:26:57.211Z,7.40
2023-04-21T22:29:24.498Z,8.80
2023-04-21T22:31:52.004Z,9.00
2023-04-21T22:34:19.822Z,7.53
2023-04-21T22:36:47.299Z,8.30
2023-04-21T22:39:14.645Z,8.23
2023-04-21T22:41:42.104Z,7.53
2023-04-21T22:44:09.387Z,8.52
2023-04-21T22:46:36.807Z,9.15
2023-04-21T22:49:05.174Z,8.20
2023-04-21T22:51:33.046Z,8.43
2023-04-21T22:54:00.617Z,8.68
2023-04-21T22:56:29.346Z,7.85
2023-04-21T22:58:56.959Z,8.40
2023-04-21T23:01:24.452Z,8.25
2023-04-21T23:03:51.907Z,8.05
2023-04-21T23:06:19.345Z,7.75
2023-04-21T23:08:46.676Z,7.68
2023-04-21T23:11:14.419Z,8.20
2023-04-21T23:13:41.976Z,8.23
2023-04-21T23:16:09.431Z,7.35
2023-04-21T23:18:36.842Z,7.65
2023-04-21T23:21:04.341Z,7.85
2023-04-21T23:23:31.699Z,6.82
2023-04-21T23:25:59.342Z,8.73
2023-04-21T23:28:26.672Z,8.27
2023-04-21T23:30:54.068Z,7.63
2023-04-21T23:33:21.437Z,6.75
2023-04-21T23:35:48.803Z,7.18
2023-04-21T23:38:16.147Z,6.57
2023-04-21T23:40:43.419Z,7.47
2023-04-21T23:43:10.888Z,8.00
2023-04-21T23:45:38.220Z,8.52
2023-04-21T23:48:05.728Z,8.05
2023-04-21T23:50:33.167Z,7.22
2023-04-21T23:53:01.109Z,7.40
2023-04-21T23:55:28.723Z,7.95
2023-04-21T23:57:56.096Z,8.05
